createdAt,value
2022-10-22T00:00:31.450Z,7.75
2022-10-22T00:02:58.106Z,7.20
2022-10-22T00:05:24.826Z,8.70
2022-10-22T00:07:51.533Z,7.72
2022-10-22T00:10:19.057Z,8.65
2022-10-22T00:12:45.695Z,7.00
2022-10-22T00:15:12.568Z,8.13
2022-10-22T00:17:39.445Z,8.18
2022-10-22T00:20:06.885Z,8.20
2022-10-22T00:22:33.559Z,8.10
2022-10-22T00:25:01.263Z,8.60
2022-10-22T00:27:27.897Z,8.07
2022-10-22T00:29:54.491Z,8.77
2022-10-22T00:32:21.231Z,7.65
2022-10-22T00:34:47.916Z,8.48
2022-10-22T00:37:14.677Z,8.50
2022-10-22T00:39:41.295Z,7.68
2022-10-22T00:42:08.324Z,7.85
2022-10-22T00:45:16.221Z,8.00
2022-10-22T00:47:49.150Z,7.85
2022-10-22T00:50:36.867Z,7.63
2022-10-22T00:53:13.159Z,7.97
2022-10-22T00:55:42.196Z,7.80
2022-10-22T00:58:09.392Z,7.82
2022-10-22T01:00:36.077Z,8.70
2022-10-22T01:03:04.647Z,8.20
2022-10-22T01:05:39.467Z,7.72
2022-10-22T01:11:06.929Z,7.80
2022-10-22T01:16:22.407Z,7.45
2022-10-22T01:19:08.055Z,7.90
2022-10-22T01:21:53.156Z,7.78
2022-10-22T01:24:51.873Z,6.68
2022-10-22T01:27:29.119Z,7.53
2022-10-22T01:29:58.699Z,7.80
2022-10-22T01:32:27.108Z,8.07
2022-10-22T01:35:01.803Z,8.05
2022-10-22T01:37:31.670Z,7.13
2022-10-22T01:40:00.468Z,8.40
2022-10-22T01:42:27.152Z,7.90
2022-10-22T01:44:53.725Z,7.75
2022-10-22T01:47:43.220Z,7.35
2022-10-22T01:50:25.348Z,8.20
2022-10-22T01:53:30.609Z,8.13
2022-10-22T01:56:30.369Z,8.25
2022-10-22T01:59:15.306Z,6.97
2022-10-22T02:01:59.177Z,8.18
2022-10-22T02:04:51.829Z,8.35
2022-10-22T02:07:23.023Z,8.20
2022-10-22T02:09:53.806Z,7.47
2022-10-22T02:12:22.134Z,8.48
2022-10-22T02:14:50.748Z,7.97
2022-10-22T02:17:21.555Z,7.68
2022-10-22T02:19:53.538Z,8.38
2022-10-22T02:22:20.660Z,7.03
2022-10-22T02:24:48.776Z,8.18
2022-10-22T02:27:27.989Z,7.43
2022-10-22T02:30:03.567Z,7.53
2022-10-22T02:32:42.456Z,7.70
2022-10-22T02:35:13.294Z,7.30
2022-10-22T02:37:41.307Z,7.63
2022-10-22T02:40:09.197Z,7.25
2022-10-22T02:42:37.959Z,7.80
2022-10-22T02:45:05.827Z,8.00
2022-10-22T02:47:32.724Z,8.88
2022-10-22T02:49:59.288Z,7.90
2022-10-22T02:52:25.940Z,8.65
2022-10-22T02:54:52.534Z,7.65
2022-10-22T02:59:45.663Z,9.80
2022-10-22T03:02:12.276Z,8.75
2022-10-22T03:04:38.874Z,8.00
2022-10-22T03:07:05.551Z,8.10
2022-10-22T03:09:32.213Z,8.02
2022-10-22T03:11:58.805Z,9.38
2022-10-22T03:14:25.502Z,8.23
2022-10-22T03:16:52.063Z,7.72
2022-10-22T03:19:18.724Z,8.23
2022-10-22T03:21:59.537Z,9.20
2022-10-22T03:24:42.616Z,8.57
2022-10-22T03:27:11.588Z,8.57
2022-10-22T03:29:40.268Z,8.25
2022-10-22T03:32:07.072Z,8.38
2022-10-22T03:34:33.769Z,7.53
2022-10-22T03:37:01.639Z,7.72
2022-10-22T03:39:30.993Z,8.05
2022-10-22T03:41:57.933Z,8.25
2022-10-22T03:44:25.007Z,7.85
2022-10-22T03:46:51.692Z,8.00
2022-10-22T03:49:18.291Z,7.93
2022-10-22T03:51:45.240Z,8.85
2022-10-22T03:54:11.982Z,8.73
2022-10-22T03:56:38.724Z,7.55
2022-10-22T03:59:05.912Z,8.18
2022-10-22T04:01:32.689Z,8.32
2022-10-22T04:03:59.684Z,8.95
2022-10-22T04:06:26.574Z,9.35
2022-10-22T04:08:53.233Z,8.45
2022-10-22T04:11:19.846Z,8.52
2022-10-22T04:13:46.399Z,7.85
2022-10-22T04:16:18.448Z,8.02
2022-10-22T04:18:46.376Z,7.78
2022-10-22T04:21:14.470Z,8.48
2022-10-22T04:23:48.757Z,8.48
2022-10-22T04:26:16.483Z,9.07
2022-10-22T04:28:46.146Z,8.85
2022-10-22T04:31:15.182Z,8.63
2022-10-22T04:33:43.357Z,8.60
2022-10-22T04:36:11.989Z,8.38
2022-10-22T04:38:39.471Z,8.45
2022-10-22T04:41:16.864Z,8.38
2022-10-22T04:43:44.517Z,8.65
2022-10-22T04:46:12.676Z,7.68
2022-10-22T04:48:41.418Z,7.53
2022-10-22T04:51:11.191Z,8.80
2022-10-22T04:53:38.176Z,8.13
2022-10-22T04:56:20.599Z,7.90
2022-10-22T04:58:55.102Z,7.88
2022-10-22T05:01:24.488Z,8.27
2022-10-22T05:03:53.840Z,8.65
2022-10-22T05:06:21.206Z,8.05
2022-10-22T05:08:52.102Z,8.60
2022-10-22T05:11:21.721Z,8.17
2022-10-22T05:13:48.611Z,8.98
2022-10-22T05:16:15.509Z,8.65
2022-10-22T05:18:44.160Z,8.27
2022-10-22T05:21:14.722Z,9.05
2022-10-22T05:23:44.647Z,9.55
2022-10-22T05:26:12.967Z,9.48
2022-10-22T05:28:40.442Z,9.55
2022-10-22T05:31:08.844Z,9.80
2022-10-22T05:33:35.865Z,9.13
2022-10-22T05:36:04.522Z,9.43
2022-10-22T05:38:32.681Z,9.80
2022-10-22T05:41:07.723Z,10.73
2022-10-22T05:43:35.241Z,10.05
2022-10-22T05:46:07.656Z,9.38
2022-10-22T05:48:34.463Z,8.98
2022-10-22T05:51:11.398Z,9.80
2022-10-22T05:53:41.089Z,10.55
2022-10-22T05:56:11.896Z,8.98
2022-10-22T05:58:38.562Z,9.60
2022-10-22T06:01:12.599Z,9.77
2022-10-22T06:03:39.212Z,8.45
2022-10-22T06:06:18.684Z,8.93
2022-10-22T06:08:47.490Z,9.30
2022-10-22T06:11:14.311Z,9.48
2022-10-22T06:13:41.038Z,9.18
2022-10-22T06:16:08.986Z,9.70
2022-10-22T06:18:35.712Z,10.75
2022-10-22T06:21:10.871Z,8.98
2022-10-22T06:23:38.587Z,9.30
2022-10-22T06:26:06.173Z,9.02
2022-10-22T06:28:33.024Z,9.23
2022-10-22T06:31:01.526Z,9.98
2022-10-22T06:33:29.854Z,9.23
2022-10-22T06:36:06.756Z,9.52
2022-10-22T06:38:34.414Z,8.23
2022-10-22T06:41:06.753Z,9.23
2022-10-22T06:43:33.516Z,9.88
2022-10-22T06:46:02.467Z,9.52
2022-10-22T06:48:29.173Z,9.50
2022-10-22T06:50:56.308Z,9.75
2022-10-22T06:53:22.873Z,9.23
2022-10-22T06:55:49.505Z,9.35
2022-10-22T06:58:16.252Z,8.85
2022-10-22T07:00:42.865Z,9.27
2022-10-22T07:03:13.846Z,9.82
2022-10-22T07:05:43.376Z,8.87
2022-10-22T07:08:11.280Z,10.07
2022-10-22T07:10:41.596Z,9.63
2022-10-22T07:13:17.296Z,10.02
2022-10-22T07:15:45.309Z,9.48
2022-10-22T07:18:14.580Z,9.52
2022-10-22T07:20:41.208Z,10.23
2022-10-22T07:23:07.846Z,9.32
2022-10-22T07:25:35.578Z,9.50
2022-10-22T07:28:02.158Z,8.93
2022-10-22T07:30:28.908Z,8.68
2022-10-22T07:32:55.496Z,9.73
2022-10-22T07:35:22.052Z,9.25
2022-10-22T07:37:48.744Z,10.82
2022-10-22T07:40:15.352Z,11.23
2022-10-22T07:42:41.977Z,10.52
2022-10-22T07:45:09.347Z,10.13
2022-10-22T07:47:36.144Z,10.55
2022-10-22T07:50:04.234Z,10.55
2022-10-22T07:52:31.162Z,10.27
2022-10-22T07:54:57.766Z,10.38
2022-10-22T07:57:24.486Z,9.20
2022-10-22T07:59:51.184Z,10.60
2022-10-22T08:02:18.023Z,9.68
2022-10-22T08:04:44.662Z,10.55
2022-10-22T08:07:11.253Z,9.68
2022-10-22T08:09:37.917Z,10.65
2022-10-22T08:12:04.909Z,11.27
2022-10-22T08:14:31.552Z,11.02
2022-10-22T08:16:58.227Z,12.48
2022-10-22T08:19:25.151Z,10.70
2022-10-22T08:21:51.739Z,11.32
2022-10-22T08:24:18.324Z,10.93
2022-10-22T08:26:45.159Z,10.57
2022-10-22T08:29:11.775Z,10.60
2022-10-22T08:31:38.335Z,10.65
2022-10-22T08:34:05.688Z,11.07
2022-10-22T08:36:32.282Z,11.27
2022-10-22T08:38:58.882Z,10.00
2022-10-22T08:41:26.250Z,10.25
2022-10-22T08:43:58.529Z,9.60
2022-10-22T08:46:34.098Z,9.57
2022-10-22T08:49:03.123Z,9.60
2022-10-22T08:51:40.494Z,10.82
2022-10-22T08:54:13.289Z,9.82
2022-10-22T08:56:45.098Z,11.32
2022-10-22T08:59:17.439Z,10.70
2022-10-22T09:01:48.010Z,10.82
2022-10-22T09:04:30.967Z,10.80
2022-10-22T09:06:59.402Z,11.05
2022-10-22T09:09:39.696Z,11.73
2022-10-22T09:12:07.254Z,10.77
2022-10-22T09:14:34.025Z,11.20
2022-10-22T09:17:41.209Z,11.32
2022-10-22T09:20:17.168Z,10.90
2022-10-22T09:23:00.899Z,10.40
2022-10-22T09:25:30.886Z,9.68
2022-10-22T09:28:03.714Z,9.68
2022-10-22T09:30:35.188Z,10.68
2022-10-22T09:33:07.838Z,9.15
2022-10-22T09:35:43.731Z,9.52
2022-10-22T09:38:14.188Z,9.27
2022-10-22T09:40:51.973Z,8.68
2022-10-22T09:43:19.142Z,8.32
2022-10-22T09:45:47.895Z,11.60
2022-10-22T09:48:14.611Z,10.32
2022-10-22T09:50:49.795Z,10.40
2022-10-22T09:53:27.102Z,10.95
2022-10-22T09:55:59.807Z,9.98
2022-10-22T09:58:27.393Z,8.55
2022-10-22T10:00:59.338Z,9.38
2022-10-22T10:03:31.555Z,9.35
2022-10-22T10:06:04.709Z,9.30
2022-10-22T10:08:33.009Z,9.57
2022-10-22T10:11:06.301Z,9.07
2022-10-22T10:13:54.230Z,9.52
2022-10-22T10:16:38.864Z,9.43
2022-10-22T10:19:50.443Z,9.80
2022-10-22T10:22:27.620Z,9.10
2022-10-22T10:25:03.191Z,9.55
2022-10-22T10:27:43.475Z,9.25
2022-10-22T10:30:12.875Z,9.13
2022-10-22T10:32:55.433Z,10.02
2022-10-22T10:35:28.224Z,9.85
2022-10-22T10:38:03.946Z,10.35
2022-10-22T10:40:58.628Z,10.65
2022-10-22T10:43:37.042Z,10.00
2022-10-22T10:46:09.561Z,11.18
2022-10-22T10:48:45.435Z,10.95
2022-10-22T10:51:27.070Z,9.98
2022-10-22T10:54:18.040Z,10.18
2022-10-22T10:56:55.777Z,10.02
2022-10-22T10:59:50.626Z,10.63
2022-10-22T11:02:54.438Z,10.02
2022-10-22T11:05:30.765Z,9.90
2022-10-22T11:08:06.620Z,9.27
2022-10-22T11:10:38.978Z,9.88
2022-10-22T11:13:17.059Z,9.35
2022-10-22T11:15:48.730Z,8.82
2022-10-22T11:21:13.904Z,9.15
2022-10-22T11:24:09.975Z,9.15
2022-10-22T11:26:51.781Z,8.70
2022-10-22T11:31:49.788Z,9.73
2022-10-22T11:34:33.295Z,9.15
2022-10-22T11:37:02.057Z,9.25
2022-10-22T11:39:34.392Z,9.95
2022-10-22T11:42:11.562Z,10.13
2022-10-22T11:45:28.691Z,8.50
2022-10-22T11:48:10.451Z,9.70
2022-10-22T11:53:15.603Z,10.50
2022-10-22T11:55:56.672Z,9.32
2022-10-22T11:58:32.245Z,10.13
2022-10-22T12:01:01.460Z,9.52
2022-10-22T12:03:33.788Z,10.38
2022-10-22T12:06:12.184Z,10.20
2022-10-22T12:09:05.948Z,9.05
2022-10-22T12:11:39.803Z,9.00
2022-10-22T12:14:29.616Z,8.75
2022-10-22T12:16:59.271Z,8.98
2022-10-22T12:19:41.781Z,8.95
2022-10-22T12:22:17.051Z,9.70
2022-10-22T12:24:50.166Z,9.70
2022-10-22T12:27:28.071Z,9.25
2022-10-22T12:29:57.416Z,8.93
2022-10-22T12:32:33.106Z,8.25
2022-10-22T12:35:09.040Z,7.82
2022-10-22T12:37:37.182Z,8.98
2022-10-22T12:40:28.296Z,9.27
2022-10-22T12:42:58.256Z,8.33
2022-10-22T12:45:31.014Z,8.95
2022-10-22T12:48:00.809Z,8.38
2022-10-22T12:50:42.065Z,8.35
2022-10-22T12:53:22.635Z,8.30
2022-10-22T12:55:52.303Z,8.70
2022-10-22T12:58:28.102Z,8.90
2022-10-22T13:01:03.309Z,8.40
2022-10-22T13:03:35.193Z,8.23
2022-10-22T13:06:21.236Z,8.43
2022-10-22T13:08:59.273Z,8.15
2022-10-22T13:11:41.530Z,8.98
2022-10-22T13:14:26.852Z,8.43
2022-10-22T13:17:41.771Z,8.93
2022-10-22T13:20:21.053Z,8.85
2022-10-22T13:23:00.492Z,9.10
2022-10-22T13:25:29.257Z,9.45
2022-10-22T13:27:57.580Z,9.40
2022-10-22T13:30:35.872Z,9.10
2022-10-22T13:33:18.228Z,9.82
2022-10-22T13:35:44.974Z,9.88
2022-10-22T13:38:18.442Z,11.70
2022-10-22T13:40:45.307Z,10.35
2022-10-22T13:43:11.909Z,10.68
2022-10-22T13:45:38.858Z,11.48
2022-10-22T13:48:05.867Z,10.93
2022-10-22T13:50:32.794Z,10.02
2022-10-22T13:52:59.479Z,9.85
2022-10-22T13:55:29.559Z,10.60
2022-10-22T13:58:19.888Z,11.20
2022-10-22T14:00:50.104Z,11.25
2022-10-22T14:03:20.761Z,10.80
2022-10-22T14:05:48.415Z,11.27
2022-10-22T14:08:20.544Z,10.60
2022-10-22T14:10:47.229Z,10.73
2022-10-22T14:13:16.354Z,11.25
2022-10-22T14:15:45.299Z,11.02
2022-10-22T14:18:17.096Z,12.05
2022-10-22T14:20:44.401Z,11.27
2022-10-22T14:23:54.331Z,10.82
2022-10-22T14:26:28.284Z,11.05
2022-10-22T14:29:11.284Z,12.20
2022-10-22T14:31:44.415Z,13.00
2022-10-22T14:34:13.097Z,12.90
2022-10-22T14:36:39.727Z,12.23
2022-10-22T14:39:06.387Z,12.60
2022-10-22T14:41:33.218Z,12.07
2022-10-22T14:44:00.156Z,11.68
2022-10-22T14:46:26.796Z,13.77
2022-10-22T14:48:53.367Z,14.38
2022-10-22T14:51:21.475Z,12.82
2022-10-22T14:53:48.715Z,13.93
2022-10-22T14:56:18.426Z,12.63
2022-10-22T14:58:45.826Z,12.18
2022-10-22T15:01:13.211Z,11.98
2022-10-22T15:03:40.066Z,12.50
2022-10-22T15:06:07.147Z,13.23
2022-10-22T15:08:34.248Z,12.65
2022-10-22T15:11:06.323Z,12.38
2022-10-22T15:13:34.259Z,12.02
2022-10-22T15:16:01.534Z,12.18
2022-10-22T15:18:28.769Z,12.55
2022-10-22T15:21:03.616Z,13.63
2022-10-22T15:23:30.948Z,14.77
2022-10-22T15:25:58.011Z,13.95
2022-10-22T15:28:25.605Z,12.88
2022-10-22T15:30:54.367Z,15.05
2022-10-22T15:33:23.208Z,14.38
2022-10-22T15:35:49.914Z,13.55
2022-10-22T15:38:17.062Z,14.23
2022-10-22T15:40:44.070Z,15.38
2022-10-22T15:43:11.374Z,15.30
2022-10-22T15:45:39.538Z,15.95
2022-10-22T15:48:06.271Z,15.40
2022-10-22T15:50:37.066Z,16.15
2022-10-22T15:53:03.671Z,16.33
2022-10-22T15:55:30.316Z,16.55
2022-10-22T15:57:59.217Z,16.73
2022-10-22T16:00:28.705Z,19.08
2022-10-22T16:02:55.425Z,15.63
2022-10-22T16:05:22.036Z,16.98
2022-10-22T16:07:48.703Z,17.38
2022-10-22T16:10:15.421Z,16.77
2022-10-22T16:12:42.735Z,17.08
2022-10-22T16:15:10.269Z,16.15
2022-10-22T16:17:36.887Z,18.60
2022-10-22T16:20:04.136Z,17.60
2022-10-22T16:22:30.943Z,17.23
2022-10-22T16:24:57.487Z,18.30
2022-10-22T16:27:24.114Z,18.60
2022-10-22T16:29:50.799Z,18.38
2022-10-22T16:32:17.935Z,18.90
2022-10-22T16:34:44.505Z,19.85
2022-10-22T16:37:11.173Z,19.60
2022-10-22T16:39:38.192Z,21.55
2022-10-22T16:42:04.927Z,22.42
2022-10-22T16:44:31.508Z,22.90
2022-10-22T16:46:58.273Z,23.30
2022-10-22T16:49:24.947Z,22.85
2022-10-22T16:51:54.538Z,23.45
2022-10-22T16:54:21.983Z,24.17
2022-10-22T16:56:48.733Z,25.30
2022-10-22T16:59:15.318Z,23.83
2022-10-22T17:01:42.012Z,22.10
2022-10-22T17:04:09.367Z,24.27
2022-10-22T17:06:36.191Z,43.92
2022-10-22T17:09:03.253Z,46.80
2022-10-22T17:11:34.810Z,32.75
2022-10-22T17:14:02.695Z,24.58
2022-10-22T17:16:29.745Z,28.58
2022-10-22T17:18:56.648Z,30.60
2022-10-22T17:21:24.153Z,31.08
2022-10-22T17:23:56.555Z,30.95
2022-10-22T17:26:23.897Z,31.67
2022-10-22T17:28:51.167Z,31.25
2022-10-22T17:31:27.906Z,27.05
2022-10-22T17:33:56.967Z,26.42
2022-10-22T17:36:25.064Z,25.73
2022-10-22T17:38:54.437Z,24.35
2022-10-22T17:41:30.191Z,28.02
2022-10-22T17:43:59.444Z,27.85
2022-10-22T17:46:28.296Z,26.85
2022-10-22T17:49:04.026Z,25.17
2022-10-22T17:51:31.854Z,26.15
2022-10-22T17:53:58.579Z,25.17
2022-10-22T17:56:27.994Z,25.50
2022-10-22T17:58:55.435Z,27.02
2022-10-22T18:01:31.338Z,28.20
2022-10-22T18:04:03.990Z,26.00
2022-10-22T18:06:31.827Z,26.00
2022-10-22T18:08:58.584Z,24.55
2022-10-22T18:11:27.779Z,28.02
2022-10-22T18:13:57.134Z,28.08
2022-10-22T18:16:24.831Z,29.40
2022-10-22T18:18:54.021Z,33.00
2022-10-22T18:21:22.265Z,32.08
2022-10-22T18:23:49.106Z,28.95
2022-10-22T18:26:17.932Z,31.10
2022-10-22T18:28:46.174Z,33.80
2022-10-22T18:31:17.513Z,33.92
2022-10-22T18:33:44.412Z,33.15
2022-10-22T18:36:14.588Z,31.55
2022-10-22T18:38:41.339Z,37.03
2022-10-22T18:41:10.017Z,39.15
2022-10-22T18:43:36.979Z,37.53
2022-10-22T18:46:06.885Z,36.67
2022-10-22T18:48:34.756Z,38.08
2022-10-22T18:51:04.364Z,39.95
2022-10-22T18:53:31.190Z,46.60
2022-10-22T18:55:57.831Z,43.20
2022-10-22T18:58:24.560Z,48.88
2022-10-22T19:00:51.508Z,47.92
2022-10-22T19:03:18.256Z,46.83
2022-10-22T19:05:50.412Z,45.17
2022-10-22T19:08:17.852Z,44.58
2022-10-22T19:10:48.251Z,43.97
2022-10-22T19:13:17.774Z,44.10
2022-10-22T19:15:44.726Z,38.95
2022-10-22T19:18:12.910Z,41.70
2022-10-22T19:20:39.903Z,43.22
2022-10-22T19:23:07.498Z,34.92
2022-10-22T19:25:34.853Z,31.40
2022-10-22T19:28:01.534Z,25.98
2022-10-22T19:30:28.126Z,25.10
2022-10-22T19:32:54.754Z,23.77
2022-10-22T19:35:21.454Z,22.73
2022-10-22T19:37:48.708Z,20.38
2022-10-22T19:40:15.640Z,18.65
2022-10-22T19:42:44.529Z,17.05
2022-10-22T19:45:11.463Z,16.70
2022-10-22T19:47:38.070Z,15.55
2022-10-22T19:50:05.705Z,14.82
2022-10-22T19:52:33.301Z,14.00
2022-10-22T19:54:59.913Z,12.45
2022-10-22T19:57:26.487Z,10.27
2022-10-22T19:59:53.134Z,8.90
2022-10-22T20:02:19.856Z,9.07
2022-10-22T20:04:50.015Z,7.35
2022-10-22T20:07:16.932Z,6.20
2022-10-22T20:09:43.631Z,5.07
2022-10-22T20:12:10.406Z,5.68
2022-10-22T20:14:37.621Z,5.80
2022-10-22T20:17:04.436Z,4.90
2022-10-22T20:19:31.295Z,4.70
2022-10-22T20:24:29.809Z,4.28
2022-10-22T20:26:56.455Z,4.10
2022-10-22T20:29:23.058Z,3.55
2022-10-22T20:31:50.551Z,3.60
2022-10-22T20:34:17.470Z,3.13
2022-10-22T20:36:44.059Z,3.58
2022-10-22T20:39:13.236Z,3.78
2022-10-22T20:41:41.088Z,3.58
2022-10-22T20:44:12.901Z,3.53
2022-10-22T20:49:12.821Z,2.72
2022-10-22T20:51:39.498Z,3.40
2022-10-22T20:54:07.750Z,4.32
2022-10-22T20:56:39.270Z,3.50
2022-10-22T20:59:08.391Z,3.03
2022-10-22T21:01:46.348Z,3.60
2022-10-22T21:04:13.168Z,3.50
2022-10-22T21:06:41.465Z,3.65
2022-10-22T21:09:10.131Z,3.75
2022-10-22T21:11:37.995Z,3.95
2022-10-22T21:14:06.228Z,3.13
2022-10-22T21:16:33.442Z,3.15
2022-10-22T21:19:00.038Z,3.30
2022-10-22T21:21:27.323Z,3.20
2022-10-22T21:23:54.366Z,3.30
2022-10-22T21:26:21.508Z,5.15
2022-10-22T21:28:48.402Z,3.60
2022-10-22T21:31:22.036Z,3.25
2022-10-22T21:33:50.049Z,3.90
2022-10-22T21:36:20.296Z,3.75
2022-10-22T21:38:49.674Z,4.05
2022-10-22T21:41:19.041Z,3.70
2022-10-22T21:43:46.099Z,4.10
2022-10-22T21:46:24.052Z,4.28
2022-10-22T21:49:01.203Z,4.05
2022-10-22T21:51:29.327Z,3.20
2022-10-22T21:53:55.979Z,2.92
2022-10-22T21:56:26.463Z,3.35
2022-10-22T21:58:53.688Z,3.17
2022-10-22T22:01:21.098Z,3.13
2022-10-22T22:03:49.735Z,3.00
2022-10-22T22:06:21.254Z,3.55
2022-10-22T22:08:49.181Z,2.78
2022-10-22T22:11:18.186Z,2.83
2022-10-22T22:13:45.262Z,2.85
2022-10-22T22:16:15.123Z,3.50
2022-10-22T22:18:42.374Z,2.80
2022-10-22T22:21:13.122Z,3.40
2022-10-22T22:23:42.781Z,3.03
2022-10-22T22:26:12.231Z,3.58
2022-10-22T22:28:39.155Z,3.75
2022-10-22T22:31:16.763Z,3.53
2022-10-22T22:33:44.217Z,3.83
2022-10-22T22:36:11.869Z,3.47
2022-10-22T22:38:39.164Z,3.63
2022-10-22T22:41:06.839Z,3.47
2022-10-22T22:43:34.245Z,3.50
2022-10-22T22:46:05.304Z,3.90
2022-10-22T22:48:32.845Z,3.23
2022-10-22T22:51:02.295Z,4.00
2022-10-22T22:53:29.235Z,3.25
2022-10-22T22:56:11.058Z,3.55
2022-10-22T22:58:40.413Z,3.85
2022-10-22T23:01:19.075Z,3.60
2022-10-22T23:03:48.658Z,3.78
2022-10-22T23:06:16.015Z,3.58
2022-10-22T23:08:43.246Z,3.60
2022-10-22T23:11:14.060Z,3.80
2022-10-22T23:13:43.067Z,3.80
2022-10-22T23:16:19.093Z,3.55
2022-10-22T23:18:47.718Z,4.40
2022-10-22T23:21:29.179Z,3.35
2022-10-22T23:24:17.037Z,4.15
2022-10-22T23:26:46.275Z,3.72
2022-10-22T23:29:25.272Z,4.00
2022-10-22T23:31:52.843Z,3.67
2022-10-22T23:34:21.909Z,3.50
2022-10-22T23:36:50.724Z,4.80
2022-10-22T23:39:21.856Z,4.40
2022-10-22T23:41:50.000Z,4.88
2022-10-22T23:44:17.773Z,4.97
2022-10-22T23:46:45.803Z,4.40
2022-10-22T23:49:14.022Z,5.15
2022-10-22T23:51:42.095Z,5.75
2022-10-22T23:54:14.875Z,4.78
2022-10-22T23:56:42.032Z,4.70
2022-10-22T23:59:10.337Z,5.25
